createdAt,value
2022-12-27T00:02:21.702Z,86.96
2022-12-27T00:06:26.175Z,87.13
2022-12-27T00:10:28.269Z,87.27
2022-12-27T00:14:31.610Z,86.81
2022-12-27T00:18:34.030Z,87.04
2022-12-27T00:22:36.054Z,87.16
2022-12-27T00:26:39.358Z,86.92
2022-12-27T00:30:41.932Z,87.00
2022-12-27T00:34:43.950Z,87.63
2022-12-27T00:38:46.693Z,88.40
2022-12-27T00:42:48.680Z,88.81
2022-12-27T00:46:50.681Z,89.33
2022-12-27T00:51:18.712Z,89.49
2022-12-27T00:55:21.170Z,92.56
2022-12-27T00:59:23.176Z,91.76
2022-12-27T01:03:25.193Z,91.41
2022-12-27T01:07:27.327Z,91.61
2022-12-27T01:11:30.062Z,91.42
2022-12-27T01:15:32.037Z,91.64
2022-12-27T01:19:37.983Z,92.30
2022-12-27T01:23:41.032Z,93.03
2022-12-27T01:27:43.031Z,93.76
2022-12-27T01:31:45.395Z,93.59
2022-12-27T01:35:48.061Z,93.84
2022-12-27T01:39:50.061Z,94.23
2022-12-27T01:43:52.078Z,94.92
2022-12-27T01:47:59.526Z,95.01
2022-12-27T01:52:01.781Z,95.61
2022-12-27T01:56:21.787Z,95.89
2022-12-27T02:00:23.927Z,96.49
2022-12-27T02:04:30.858Z,96.62
2022-12-27T02:08:43.759Z,97.18
2022-12-27T02:12:45.858Z,97.28
2022-12-27T02:16:48.444Z,97.11
2022-12-27T02:21:12.384Z,97.62
2022-12-27T02:25:41.935Z,97.83
2022-12-27T02:29:51.404Z,98.33
2022-12-27T02:33:55.615Z,98.45
2022-12-27T02:38:04.528Z,98.90
2022-12-27T02:42:27.737Z,98.96
2022-12-27T02:46:49.716Z,98.86
2022-12-27T02:51:39.977Z,99.62
2022-12-27T02:57:11.259Z,99.72
2022-12-27T03:01:54.342Z,99.85
2022-12-27T03:06:34.133Z,100.00
2022-12-27T03:11:06.898Z,100.00
2022-12-27T03:15:49.178Z,100.00
2022-12-27T03:20:14.869Z,100.00
2022-12-27T03:24:40.877Z,100.00
2022-12-27T03:29:03.531Z,100.00
2022-12-27T03:33:13.538Z,100.00
2022-12-27T03:37:39.708Z,100.00
2022-12-27T03:42:26.947Z,100.00
2022-12-27T03:46:33.621Z,100.00
2022-12-27T03:50:43.600Z,100.00
2022-12-27T03:54:48.139Z,100.00
2022-12-27T03:58:51.881Z,100.00
2022-12-27T04:02:54.125Z,100.00
2022-12-27T04:06:56.478Z,100.00
2022-12-27T04:11:17.158Z,100.00
2022-12-27T04:15:37.629Z,100.00
2022-12-27T04:19:58.358Z,100.00
2022-12-27T04:24:18.927Z,100.00
2022-12-27T04:28:39.232Z,100.00
2022-12-27T04:33:00.200Z,100.00
2022-12-27T04:37:02.228Z,100.00
2022-12-27T04:41:23.004Z,100.00
2022-12-27T04:45:44.062Z,100.00
2022-12-27T04:50:04.611Z,100.00
2022-12-27T04:54:40.259Z,100.00
2022-12-27T04:59:02.269Z,100.00
2022-12-27T05:03:09.818Z,100.00
2022-12-27T05:07:33.117Z,100.00
2022-12-27T05:11:53.505Z,100.00
2022-12-27T05:15:55.637Z,100.00
2022-12-27T05:19:57.666Z,100.00
2022-12-27T05:24:18.437Z,100.00
2022-12-27T05:28:20.452Z,100.00
2022-12-27T05:32:22.569Z,100.00
2022-12-27T05:36:25.643Z,100.00
2022-12-27T05:40:28.209Z,100.00
2022-12-27T05:44:30.334Z,100.00
2022-12-27T05:48:32.852Z,100.00
2022-12-27T05:52:40.616Z,100.00
2022-12-27T05:56:43.074Z,100.00
2022-12-27T06:00:45.074Z,100.00
2022-12-27T06:04:47.087Z,100.00
2022-12-27T06:08:49.095Z,100.00
2022-12-27T06:12:51.126Z,100.00
2022-12-27T06:16:53.219Z,100.00
2022-12-27T06:20:55.269Z,100.00
2022-12-27T06:24:57.248Z,100.00
2022-12-27T06:28:59.273Z,100.00
2022-12-27T06:33:01.283Z,100.00
2022-12-27T06:37:03.433Z,100.00
2022-12-27T06:41:08.099Z,100.00
2022-12-27T06:45:10.561Z,100.00
2022-12-27T06:49:12.534Z,100.00
2022-12-27T06:53:14.532Z,100.00
2022-12-27T06:57:16.555Z,100.00
2022-12-27T07:01:25.150Z,100.00
2022-12-27T07:05:27.219Z,100.00
2022-12-27T07:09:29.267Z,100.00
2022-12-27T07:13:38.378Z,100.00
2022-12-27T07:17:40.388Z,100.00
2022-12-27T07:21:43.356Z,100.00
2022-12-27T07:25:45.341Z,100.00
2022-12-27T07:29:47.435Z,100.00
2022-12-27T07:33:49.473Z,100.00
2022-12-27T07:37:51.610Z,100.00
2022-12-27T07:41:53.629Z,100.00
2022-12-27T07:45:55.648Z,100.00
2022-12-27T07:49:57.767Z,100.00
2022-12-27T07:54:00.383Z,100.00
2022-12-27T07:58:02.385Z,100.00
2022-12-27T08:02:04.564Z,100.00
2022-12-27T08:06:08.303Z,99.89
2022-12-27T08:10:10.343Z,100.00
2022-12-27T08:14:12.329Z,99.95
2022-12-27T08:18:14.299Z,99.69
2022-12-27T08:22:16.890Z,99.51
2022-12-27T08:26:18.899Z,98.68
2022-12-27T08:30:20.928Z,98.91
2022-12-27T08:34:22.968Z,98.13
2022-12-27T08:38:24.949Z,97.31
2022-12-27T08:42:26.923Z,96.00
2022-12-27T08:46:28.952Z,95.37
2022-12-27T08:50:31.973Z,94.48
2022-12-27T08:54:33.962Z,94.36
2022-12-27T08:58:36.134Z,94.79
2022-12-27T09:02:38.283Z,94.90
2022-12-27T09:06:40.976Z,92.84
2022-12-27T09:10:42.945Z,91.85
2022-12-27T09:14:44.951Z,91.21
2022-12-27T09:18:50.542Z,91.35
2022-12-27T09:22:52.511Z,91.60
2022-12-27T09:26:54.520Z,91.77
2022-12-27T09:30:56.614Z,91.33
2022-12-27T09:34:58.943Z,90.78
2022-12-27T09:39:01.277Z,89.90
2022-12-27T09:43:23.823Z,89.57
2022-12-27T09:47:38.547Z,88.64
2022-12-27T09:51:51.021Z,87.95
2022-12-27T09:55:55.390Z,87.26
2022-12-27T09:59:59.553Z,86.73
2022-12-27T10:04:02.154Z,86.52
2022-12-27T10:08:26.968Z,85.92
2022-12-27T10:12:52.501Z,84.54
2022-12-27T10:17:14.776Z,84.75
2022-12-27T10:21:21.638Z,83.74
2022-12-27T10:25:25.470Z,83.75
2022-12-27T10:29:28.808Z,83.13
2022-12-27T10:33:34.136Z,81.14
2022-12-27T10:37:36.153Z,80.78
2022-12-27T10:42:09.021Z,80.54
2022-12-27T10:46:15.598Z,81.04
2022-12-27T10:50:18.291Z,81.33
2022-12-27T10:54:24.808Z,80.48
2022-12-27T10:58:26.742Z,79.43
2022-12-27T11:02:28.828Z,79.22
2022-12-27T11:06:31.369Z,79.15
2022-12-27T11:10:33.407Z,78.20
2022-12-27T11:14:37.135Z,78.90
2022-12-27T11:18:45.922Z,78.49
2022-12-27T11:22:52.540Z,77.78
2022-12-27T11:26:59.273Z,77.50
2022-12-27T11:31:05.114Z,77.75
2022-12-27T11:35:16.364Z,77.44
2022-12-27T11:39:51.166Z,76.29
2022-12-27T11:43:59.016Z,75.90
2022-12-27T11:48:10.729Z,74.70
2022-12-27T11:52:33.672Z,73.94
2022-12-27T11:56:41.595Z,74.00
2022-12-27T12:01:14.853Z,73.70
2022-12-27T12:06:00.195Z,73.52
2022-12-27T12:10:27.070Z,73.31
2022-12-27T12:14:46.297Z,73.60
2022-12-27T12:19:12.760Z,73.50
2022-12-27T12:24:06.794Z,73.48
2022-12-27T12:29:01.841Z,74.05
2022-12-27T12:33:41.584Z,73.04
2022-12-27T12:38:01.580Z,73.19
2022-12-27T12:42:26.224Z,73.39
2022-12-27T12:46:37.230Z,73.34
2022-12-27T12:51:03.144Z,73.49
2022-12-27T12:55:23.813Z,74.19
2022-12-27T13:00:19.699Z,74.11
2022-12-27T13:04:34.763Z,74.25
2022-12-27T13:08:52.091Z,74.68
2022-12-27T13:12:59.174Z,74.75
2022-12-27T13:17:07.669Z,75.35
2022-12-27T13:21:30.766Z,75.76
2022-12-27T13:26:09.765Z,74.84
2022-12-27T13:30:20.205Z,74.73
2022-12-27T13:34:48.144Z,74.57
2022-12-27T13:39:09.151Z,74.15
2022-12-27T13:43:11.022Z,74.96
2022-12-27T13:47:41.403Z,75.28
2022-12-27T13:51:49.835Z,75.76
2022-12-27T13:56:51.359Z,75.76
2022-12-27T14:00:45.684Z,75.32
2022-12-27T14:05:23.414Z,75.61
2022-12-27T14:10:00.599Z,75.73
2022-12-27T14:14:05.496Z,75.58
2022-12-27T14:18:24.657Z,75.42
2022-12-27T14:22:29.715Z,76.01
2022-12-27T14:26:46.763Z,76.69
2022-12-27T14:31:10.806Z,77.57
2022-12-27T14:35:50.055Z,78.07
2022-12-27T14:40:35.322Z,78.58
2022-12-27T14:44:55.480Z,78.90
2022-12-27T14:49:15.966Z,79.27
2022-12-27T14:53:17.919Z,80.01
2022-12-27T14:57:33.473Z,79.90
2022-12-27T15:01:42.385Z,81.08
2022-12-27T15:06:35.886Z,82.73
2022-12-27T15:11:08.252Z,83.89
2022-12-27T15:15:23.436Z,85.39
2022-12-27T15:19:37.573Z,87.41
2022-12-27T15:23:55.623Z,89.11
2022-12-27T15:28:16.119Z,90.42
2022-12-27T15:32:55.605Z,91.34
2022-12-27T15:36:57.913Z,92.72
2022-12-27T15:41:16.181Z,93.32
2022-12-27T15:45:30.519Z,93.84
2022-12-27T15:49:38.554Z,94.23
2022-12-27T15:54:03.844Z,94.68
2022-12-27T15:58:23.038Z,94.99
2022-12-27T16:02:37.843Z,96.20
2022-12-27T16:06:50.542Z,97.08
2022-12-27T16:10:53.398Z,97.57
2022-12-27T16:15:33.967Z,98.17
2022-12-27T16:19:51.966Z,98.22
2022-12-27T16:24:00.886Z,98.61
2022-12-27T16:28:23.807Z,99.18
2022-12-27T16:32:28.292Z,99.51
2022-12-27T16:36:32.451Z,99.40
2022-12-27T16:40:38.012Z,99.46
2022-12-27T16:44:56.162Z,99.76
2022-12-27T16:49:14.814Z,100.00
2022-12-27T16:53:43.141Z,100.00
2022-12-27T16:57:49.456Z,99.95
2022-12-27T17:01:52.599Z,99.39
2022-12-27T17:10:52.269Z,98.86
2022-12-27T17:15:00.977Z,98.33
2022-12-27T17:19:07.149Z,98.50
2022-12-27T17:23:09.985Z,98.15
2022-12-27T17:27:49.583Z,97.81
2022-12-27T17:32:07.359Z,97.94
2022-12-27T17:36:49.324Z,97.70
2022-12-27T17:41:17.429Z,97.34
2022-12-27T17:45:43.763Z,97.04
2022-12-27T17:49:46.850Z,97.27
2022-12-27T17:54:09.143Z,97.22
2022-12-27T17:58:16.060Z,97.21
2022-12-27T18:02:26.048Z,97.92
2022-12-27T18:06:28.272Z,96.91
2022-12-27T18:10:31.559Z,95.72
2022-12-27T18:14:34.108Z,94.63
2022-12-27T18:18:36.362Z,94.23
2022-12-27T18:22:38.368Z,94.34
2022-12-27T18:26:41.911Z,93.74
2022-12-27T18:31:11.095Z,93.58
2022-12-27T18:35:24.313Z,94.40
2022-12-27T18:39:42.196Z,94.15
2022-12-27T18:43:47.269Z,94.00
2022-12-27T18:47:52.057Z,94.40
2022-12-27T18:51:55.040Z,94.95
2022-12-27T18:56:23.825Z,94.91
2022-12-27T19:00:27.171Z,93.24
2022-12-27T19:04:31.619Z,92.51
2022-12-27T19:08:50.317Z,93.13
2022-12-27T19:12:53.954Z,92.97
2022-12-27T19:16:58.575Z,93.09
2022-12-27T19:21:02.787Z,93.67
2022-12-27T19:25:23.638Z,93.95
2022-12-27T19:29:28.484Z,94.25
2022-12-27T19:33:34.234Z,94.01
2022-12-27T19:37:36.363Z,94.38
2022-12-27T19:41:39.120Z,94.34
2022-12-27T19:45:41.190Z,95.08
2022-12-27T19:49:44.357Z,94.93
2022-12-27T19:53:57.558Z,95.43
2022-12-27T19:57:59.768Z,96.49
2022-12-27T20:02:01.895Z,97.31
2022-12-27T20:06:12.741Z,97.81
2022-12-27T20:10:17.283Z,97.92
2022-12-27T20:14:19.354Z,98.63
2022-12-27T20:18:21.781Z,99.39
2022-12-27T20:22:23.793Z,100.00
2022-12-27T20:26:26.233Z,100.00
2022-12-27T20:30:30.532Z,100.00
2022-12-27T20:34:32.544Z,100.00
2022-12-27T20:38:35.898Z,100.00
2022-12-27T20:42:37.900Z,100.00
2022-12-27T20:46:40.548Z,100.00
2022-12-27T20:50:42.557Z,100.00
2022-12-27T20:54:44.585Z,100.00
2022-12-27T20:58:46.601Z,100.00
2022-12-27T21:02:48.851Z,100.00
2022-12-27T21:06:51.628Z,100.00
2022-12-27T21:10:53.632Z,100.00
2022-12-27T21:14:55.638Z,100.00
2022-12-27T21:18:58.355Z,100.00
2022-12-27T21:23:00.386Z,100.00
2022-12-27T21:27:02.396Z,100.00
2022-12-27T21:31:05.686Z,100.00
2022-12-27T21:35:08.107Z,100.00
2022-12-27T21:39:10.364Z,100.00
2022-12-27T21:43:12.343Z,100.00
2022-12-27T21:47:14.338Z,100.00
2022-12-27T21:51:18.130Z,100.00
2022-12-27T21:55:20.210Z,100.00
2022-12-27T21:59:22.209Z,100.00
2022-12-27T22:03:24.379Z,100.00
2022-12-27T22:07:26.495Z,100.00
2022-12-27T22:11:29.926Z,100.00
2022-12-27T22:15:31.969Z,100.00
2022-12-27T22:19:34.045Z,100.00
2022-12-27T22:23:40.078Z,100.00
2022-12-27T22:27:42.078Z,100.00
2022-12-27T22:31:44.129Z,100.00
2022-12-27T22:35:46.236Z,100.00
2022-12-27T22:39:48.198Z,100.00
2022-12-27T22:43:52.659Z,100.00
2022-12-27T22:47:54.737Z,100.00
2022-12-27T22:51:56.772Z,100.00
2022-12-27T22:55:58.758Z,100.00
2022-12-27T23:00:00.719Z,100.00
2022-12-27T23:04:05.793Z,100.00
2022-12-27T23:08:07.797Z,100.00
2022-12-27T23:12:09.814Z,100.00
2022-12-27T23:16:12.187Z,100.00
2022-12-27T23:20:14.207Z,100.00
2022-12-27T23:24:16.631Z,100.00
2022-12-27T23:28:18.938Z,100.00
2022-12-27T23:32:20.944Z,100.00
2022-12-27T23:36:23.258Z,100.00
2022-12-27T23:40:25.279Z,100.00
2022-12-27T23:44:34.438Z,100.00
2022-12-27T23:48:37.297Z,100.00
2022-12-27T23:52:39.411Z,100.00
2022-12-27T23:56:41.470Z,100.00
